Time;durP1;ratioP1;P1;durP2;ratioP2;P2;SDS_P1;SDS_P2;PMS_P1;PMS_P2;Temp;Humidity;BMP_temperature;BMP_pressure;BME280_temperature;BME280_humidity;BME280_pressure;Samples;Min_cycle;Max_cycle;Signal;HPM_P1;HPM_P2
2023/07/30 00:00:59;;;;;;;13.23;10.57;;;;;;;17.09;100.00;100278.25;4906054;29;20413;-82
2023/07/30 00:03:37;;;;;;;13.00;9.93;;;;;;;17.08;100.00;100278.53;4921243;29;20451;-82
2023/07/30 00:06:11;;;;;;;11.40;10.40;;;;;;;16.99;100.00;100278.19;4924516;29;20429;-82
2023/07/30 00:08:52;;;;;;;11.53;10.37;;;;;;;16.89;100.00;100278.88;4902276;29;20499;-82
2023/07/30 00:11:52;;;;;;;10.87;9.87;;;;;;;16.85;100.00;100285.97;4915640;29;20459;-81
2023/07/30 00:14:24;;;;;;;10.43;9.53;;;;;;;16.81;100.00;100290.28;4909039;29;20412;-83
2023/07/30 00:17:32;;;;;;;10.73;9.63;;;;;;;16.77;100.00;100286.44;4911916;29;20464;-82
2023/07/30 00:20:08;;;;;;;9.73;8.87;;;;;;;16.81;100.00;100284.81;4914044;29;20426;-82
2023/07/30 00:35:27;;;;;;;9.53;8.63;;;;;;;16.52;100.00;100273.28;4865361;29;20557;-80
2023/07/30 00:37:56;;;;;;;10.80;9.90;;;;;;;16.39;100.00;100268.22;4931920;29;20508;-81
2023/07/30 00:40:26;;;;;;;11.43;10.30;;;;;;;16.38;100.00;100272.03;4938444;29;20397;-81
2023/07/30 00:42:55;;;;;;;10.43;9.53;;;;;;;16.33;100.00;100266.50;4922381;29;20518;-83
2023/07/30 00:45:25;;;;;;;10.60;9.80;;;;;;;16.38;100.00;100268.47;4913122;29;20443;-81
2023/07/30 00:47:56;;;;;;;14.70;11.40;;;;;;;16.47;100.00;100266.94;4908456;29;20430;-81
2023/07/30 00:50:26;;;;;;;11.10;9.97;;;;;;;16.33;100.00;100255.59;4912637;29;21065;-81
2023/07/30 00:52:56;;;;;;;11.27;10.27;;;;;;;16.22;100.00;100247.50;4917049;29;20405;-81
2023/07/30 00:55:25;;;;;;;18.53;11.23;;;;;;;16.19;100.00;100248.03;4912365;29;20516;-82
2023/07/30 00:57:57;;;;;;;11.43;10.43;;;;;;;16.12;100.00;100241.97;4906690;29;20413;-81
2023/07/30 01:00:28;;;;;;;10.73;9.63;;;;;;;16.05;100.00;100240.25;4907789;29;20482;-80
2023/07/30 01:02:57;;;;;;;10.67;9.63;;;;;;;15.99;100.00;100240.41;4910904;29;20445;-80
2023/07/30 01:05:28;;;;;;;10.90;9.90;;;;;;;16.09;100.00;100248.75;4907972;29;20445;-82
2023/07/30 01:07:58;;;;;;;11.23;9.70;;;;;;;16.11;100.00;100245.75;4907730;29;20488;-81
2023/07/30 01:10:27;;;;;;;10.97;9.80;;;;;;;16.00;100.00;100253.81;4903096;29;20515;-82
2023/07/30 01:12:57;;;;;;;11.07;9.83;;;;;;;16.07;100.00;100254.44;4913407;29;20433;-80
2023/07/30 01:15:26;;;;;;;10.17;9.17;;;;;;;16.10;100.00;100247.66;4915313;29;20421;-81
2023/07/30 01:17:56;;;;;;;11.00;9.90;;;;;;;15.95;100.00;100252.94;4908079;29;20470;-81
2023/07/30 01:20:30;;;;;;;10.90;9.90;;;;;;;16.17;100.00;100261.13;4906221;29;20409;-81
2023/07/30 01:23:01;;;;;;;11.17;10.07;;;;;;;15.96;100.00;100269.06;4905770;29;20475;-81
2023/07/30 01:25:34;;;;;;;11.27;9.97;;;;;;;15.99;100.00;100271.25;4906958;29;21001;-81
2023/07/30 01:28:05;;;;;;;9.80;9.00;;;;;;;15.92;100.00;100276.09;4908623;29;20454;-80
2023/07/30 01:30:41;;;;;;;11.17;8.63;;;;;;;15.84;100.00;100270.22;4900036;29;20496;-81
2023/07/30 01:33:12;;;;;;;10.57;9.57;;;;;;;15.84;100.00;100262.88;4904638;29;20414;-80
2023/07/30 01:35:44;;;;;;;11.10;10.10;;;;;;;15.78;100.00;100266.59;4906098;29;20421;-81
2023/07/30 01:38:15;;;;;;;13.23;9.17;;;;;;;15.75;100.00;100269.84;4903467;29;20413;-81
2023/07/30 01:40:44;;;;;;;10.40;9.40;;;;;;;15.75;100.00;100275.28;4905498;29;20430;-82
2023/07/30 01:43:14;;;;;;;10.30;9.40;;;;;;;15.70;100.00;100272.50;4909084;29;20821;-81
2023/07/30 01:45:43;;;;;;;11.07;10.07;;;;;;;15.68;100.00;100276.56;4908392;29;20993;-79
2023/07/30 01:48:12;;;;;;;10.10;9.13;;;;;;;15.73;100.00;100279.38;4908857;29;20438;-81
2023/07/30 01:50:43;;;;;;;10.43;9.43;;;;;;;15.69;100.00;100284.47;4901164;29;20451;-82
2023/07/30 01:53:12;;;;;;;12.33;9.20;;;;;;;15.68;100.00;100288.28;4906582;29;20434;-81
2023/07/30 01:55:45;;;;;;;9.10;8.40;;;;;;;15.61;100.00;100291.19;4902569;29;20506;-81
2023/07/30 01:58:15;;;;;;;10.30;9.30;;;;;;;15.59;100.00;100297.94;4923623;29;20491;-81
2023/07/30 02:00:45;;;;;;;9.37;8.47;;;;;;;15.55;100.00;100297.63;4912950;29;20421;-81
2023/07/30 02:03:20;;;;;;;11.07;9.97;;;;;;;15.53;100.00;100296.25;4912086;29;20900;-83
2023/07/30 02:05:50;;;;;;;10.60;9.70;;;;;;;15.53;100.00;100288.91;4911365;29;20452;-82
2023/07/30 02:08:19;;;;;;;9.40;8.60;;;;;;;15.55;100.00;100288.63;4913423;29;20413;-84
2023/07/30 02:11:15;;;;;;;9.67;8.67;;;;;;;15.50;100.00;100299.41;4906215;29;20440;-84
2023/07/30 02:13:46;;;;;;;10.17;8.10;;;;;;;15.48;100.00;100296.13;4900704;29;20432;-80
2023/07/30 02:16:16;;;;;;;10.73;9.73;;;;;;;15.48;100.00;100288.78;4900167;29;20457;-83
2023/07/30 02:18:49;;;;;;;10.03;9.03;;;;;;;15.44;100.00;100289.53;4904389;29;20446;-81
2023/07/30 02:21:18;;;;;;;10.77;9.87;;;;;;;15.49;100.00;100292.34;4897256;29;20986;-83
2023/07/30 02:27:37;;;;;;;10.53;8.23;;;;;;;15.50;100.00;100299.41;4906755;29;20430;-82
2023/07/30 02:30:07;;;;;;;10.67;9.67;;;;;;;15.49;100.00;100309.50;4918735;29;20436;-82
2023/07/30 02:32:37;;;;;;;10.10;9.20;;;;;;;15.42;100.00;100295.22;4897606;29;20481;-82
2023/07/30 02:35:07;;;;;;;10.57;9.43;;;;;;;15.38;100.00;100296.78;4902462;29;20431;-82
2023/07/30 02:37:36;;;;;;;10.80;9.70;;;;;;;15.40;100.00;100299.25;4903621;29;20454;-82
2023/07/30 02:40:37;;;;;;;9.83;9.03;;;;;;;15.43;100.00;100298.78;4906782;29;20761;-83
2023/07/30 02:43:12;;;;;;;10.77;9.77;;;;;;;15.52;100.00;100302.75;4902320;29;20441;-82
2023/07/30 02:45:42;;;;;;;10.53;9.43;;;;;;;15.53;100.00;100298.97;4904355;29;20825;-83
2023/07/30 02:48:14;;;;;;;16.30;9.70;;;;;;;15.52;100.00;100310.94;4903157;29;20461;-83
2023/07/30 02:50:44;;;;;;;9.37;8.57;;;;;;;15.58;100.00;100293.59;4902529;29;20514;-83
2023/07/30 02:53:13;;;;;;;11.00;9.53;;;;;;;15.53;100.00;100304.44;4906436;29;20411;-83
2023/07/30 02:55:42;;;;;;;9.77;9.07;;;;;;;15.48;100.00;100315.22;4904457;29;20425;-81
2023/07/30 02:58:12;;;;;;;10.50;9.50;;;;;;;15.41;100.00;100311.81;4904848;29;20492;-81
2023/07/30 03:00:41;;;;;;;11.00;10.03;;;;;;;15.50;100.00;100302.97;4910922;29;20905;-81
2023/07/30 03:03:11;;;;;;;9.77;8.97;;;;;;;15.55;100.00;100314.00;4906594;29;20550;-83
2023/07/30 03:05:44;;;;;;;9.97;9.17;;;;;;;15.52;100.00;100308.22;4909465;29;20438;-82
2023/07/30 03:08:13;;;;;;;9.73;9.03;;;;;;;15.53;100.00;100309.88;4916670;29;20530;-81
2023/07/30 03:10:42;;;;;;;9.57;8.73;;;;;;;15.51;100.00;100312.00;4915381;29;20440;-83
2023/07/30 03:13:12;;;;;;;9.57;8.67;;;;;;;15.48;100.00;100307.03;4919781;29;20513;-84
2023/07/30 03:15:41;;;;;;;9.40;8.60;;;;;;;15.48;100.00;100307.88;4925546;29;20441;-82
2023/07/30 03:18:10;;;;;;;9.73;8.73;;;;;;;15.54;100.00;100311.53;4914721;29;20429;-82
2023/07/30 03:20:40;;;;;;;10.70;8.37;;;;;;;15.58;100.00;100312.69;4920569;29;20412;-81
2023/07/30 03:23:09;;;;;;;9.73;8.40;;;;;;;15.55;100.00;100324.06;4917168;29;20462;-82
2023/07/30 03:25:39;;;;;;;10.57;9.67;;;;;;;15.53;100.00;100318.06;4912181;29;20431;-82
2023/07/30 03:28:08;;;;;;;10.53;9.30;;;;;;;15.53;100.00;100320.78;4913090;29;20404;-83
2023/07/30 03:30:39;;;;;;;9.77;8.90;;;;;;;15.50;100.00;100324.78;4907269;29;20426;-82
2023/07/30 03:33:08;;;;;;;11.67;8.80;;;;;;;15.50;100.00;100324.78;4904600;29;20579;-81
2023/07/30 03:35:37;;;;;;;10.17;9.27;;;;;;;15.60;100.00;100319.53;4905529;29;20445;-81
2023/07/30 03:38:07;;;;;;;9.57;8.57;;;;;;;15.60;100.00;100324.16;4907798;29;20486;-81
2023/07/30 03:40:36;;;;;;;9.77;9.00;;;;;;;16.00;100.00;100323.94;4907654;29;20447;-82
2023/07/30 03:43:06;;;;;;;8.87;8.17;;;;;;;16.33;100.00;100328.47;4904129;29;20453;-80
2023/07/30 03:45:35;;;;;;;9.40;8.40;;;;;;;16.55;100.00;100340.25;4895704;29;20454;-82
2023/07/30 03:48:06;;;;;;;9.57;8.70;;;;;;;16.82;100.00;100335.66;4902577;29;20537;-81
2023/07/30 03:50:35;;;;;;;7.67;7.07;;;;;;;16.69;100.00;100338.81;4902568;29;20433;-80
2023/07/30 03:53:05;;;;;;;8.80;7.20;;;;;;;16.66;100.00;100336.56;4902202;29;20440;-80
2023/07/30 03:55:36;;;;;;;7.50;6.90;;;;;;;16.46;100.00;100334.38;4893926;29;20971;-80
2023/07/30 03:58:05;;;;;;;8.40;7.60;;;;;;;16.44;100.00;100336.56;4905533;29;20416;-81
2023/07/30 04:00:34;;;;;;;8.30;7.57;;;;;;;17.23;100.00;100336.09;4902511;29;20427;-82
2023/07/30 04:03:05;;;;;;;8.30;7.67;;;;;;;17.61;100.00;100340.53;4900671;29;20509;-81
2023/07/30 04:05:36;;;;;;;7.70;7.00;;;;;;;17.93;100.00;100340.50;4906530;29;20477;-81
2023/07/30 04:08:05;;;;;;;15.10;8.20;;;;;;;17.87;100.00;100341.53;4899986;29;20457;-82
2023/07/30 04:10:35;;;;;;;8.73;7.77;;;;;;;17.89;100.00;100340.19;4903501;29;20416;-81
2023/07/30 04:13:04;;;;;;;7.73;7.10;;;;;;;18.00;100.00;100336.44;4913523;29;20512;-80
2023/07/30 04:15:34;;;;;;;8.90;7.70;;;;;;;18.50;100.00;100335.88;4910950;29;20427;-81
2023/07/30 04:18:07;;;;;;;6.90;6.10;;;;;;;19.69;100.00;100334.78;4912720;29;20454;-81
2023/07/30 04:25:22;;;;;;;7.20;6.50;;;;;;;20.79;92.87;100356.75;4832493;29;20468;-82
2023/07/30 04:28:36;;;;;;;6.73;6.13;;;;;;;19.91;96.60;100357.25;4830459;29;20430;-82
2023/07/30 04:31:12;;;;;;;7.17;6.47;;;;;;;19.12;100.00;100354.19;4854810;29;20430;-83
2023/07/30 04:33:57;;;;;;;6.47;5.87;;;;;;;18.60;100.00;100352.38;4845039;29;20454;-81
2023/07/30 04:36:27;;;;;;;8.20;7.50;;;;;;;18.30;100.00;100352.19;4832785;29;20453;-82
2023/07/30 04:38:56;;;;;;;7.50;6.90;;;;;;;18.35;100.00;100362.38;4835820;29;20479;-81
2023/07/30 04:41:31;;;;;;;6.80;6.27;;;;;;;19.15;100.00;100361.88;4848651;29;20468;-81
2023/07/30 04:44:05;;;;;;;6.93;6.33;;;;;;;20.34;97.33;100366.81;4907954;29;20471;-80
2023/07/30 04:46:34;;;;;;;7.83;6.43;;;;;;;20.92;90.58;100380.88;4904512;29;20520;-80
2023/07/30 04:49:05;;;;;;;7.33;6.03;;;;;;;20.79;89.98;100376.81;4901520;29;20960;-82
2023/07/30 04:51:38;;;;;;;6.70;6.20;;;;;;;21.66;87.71;100388.13;4908212;29;20469;-79
2023/07/30 04:54:09;;;;;;;6.67;5.27;;;;;;;22.67;80.63;100384.38;4905624;29;20440;-80
2023/07/30 04:56:38;;;;;;;5.87;5.37;;;;;;;23.52;75.12;100380.78;4909246;29;20408;-80
2023/07/30 04:59:08;;;;;;;6.47;5.87;;;;;;;23.60;73.35;100383.69;4917716;29;20412;-81
2023/07/30 05:01:37;;;;;;;8.60;4.90;;;;;;;24.32;70.57;100374.97;4920255;29;20441;-80
2023/07/30 05:04:09;;;;;;;6.37;5.77;;;;;;;24.85;66.70;100372.50;4911085;29;20523;-82
2023/07/30 05:06:39;;;;;;;5.67;5.10;;;;;;;25.16;64.00;100372.69;4904798;29;20405;-80
2023/07/30 05:09:11;;;;;;;5.83;4.93;;;;;;;25.17;65.23;100375.16;4906243;29;20448;-80
2023/07/30 05:11:40;;;;;;;5.60;5.10;;;;;;;25.29;64.39;100380.94;4914828;29;20452;-81
2023/07/30 05:14:09;;;;;;;6.20;5.60;;;;;;;25.68;61.26;100379.50;4902623;29;20405;-81
2023/07/30 05:16:39;;;;;;;6.73;5.97;;;;;;;25.90;61.13;100369.22;4907481;29;20442;-80
2023/07/30 05:19:10;;;;;;;6.20;4.90;;;;;;;25.97;61.04;100368.78;4910451;29;20437;-81
2023/07/30 05:21:39;;;;;;;5.73;5.23;;;;;;;26.44;59.53;100374.75;4911863;29;20546;-81
2023/07/30 05:24:13;;;;;;;6.73;4.60;;;;;;;26.59;57.23;100374.31;4928005;29;20490;-80
2023/07/30 05:26:42;;;;;;;9.47;4.67;;;;;;;26.56;58.02;100373.00;4918022;29;20439;-80
2023/07/30 05:29:11;;;;;;;3.93;3.63;;;;;;;26.91;55.92;100373.13;4907034;29;20794;-81
2023/07/30 05:31:40;;;;;;;4.60;4.20;;;;;;;27.25;55.23;100365.66;4900062;29;20445;-83
2023/07/30 05:34:11;;;;;;;4.97;4.40;;;;;;;26.37;58.06;100376.03;4901814;29;20526;-80
2023/07/30 05:36:41;;;;;;;7.17;4.30;;;;;;;24.39;62.75;100369.88;4902582;29;20450;-81
2023/07/30 05:39:10;;;;;;;5.37;4.10;;;;;;;22.44;70.78;100366.72;4922257;29;20447;-81
2023/07/30 05:41:39;;;;;;;4.80;4.40;;;;;;;21.78;75.46;100369.31;4919125;29;20443;-81
2023/07/30 05:44:09;;;;;;;5.07;4.57;;;;;;;21.25;79.00;100369.16;4909434;29;20526;-81
2023/07/30 05:46:44;;;;;;;4.83;4.43;;;;;;;21.00;81.71;100372.03;4900812;29;20420;-81
2023/07/30 05:49:21;;;;;;;4.70;4.30;;;;;;;20.67;84.54;100381.00;4902421;29;20413;-83
2023/07/30 05:56:22;;;;;;;6.70;4.50;;;;;;;20.32;87.80;100377.28;4904331;29;20430;-83
2023/07/30 05:59:52;;;;;;;5.43;5.03;;;;;;;20.41;87.59;100368.44;4903004;29;20537;-82
2023/07/30 06:02:21;;;;;;;5.40;4.93;;;;;;;20.65;86.84;100372.22;4909654;29;20432;-83
2023/07/30 06:04:52;;;;;;;4.80;4.40;;;;;;;20.79;85.80;100373.25;4901716;29;20459;-81
2023/07/30 06:07:21;;;;;;;5.10;4.60;;;;;;;20.88;85.95;100377.03;4922047;29;20470;-81
2023/07/30 06:09:50;;;;;;;4.83;4.43;;;;;;;21.03;85.71;100374.22;4906700;29;20487;-82
2023/07/30 06:12:21;;;;;;;4.93;4.53;;;;;;;21.25;83.43;100376.59;4911628;29;20444;-81
2023/07/30 06:14:50;;;;;;;5.60;5.10;;;;;;;21.40;83.51;100381.16;4899244;29;20953;-81
2023/07/30 06:17:20;;;;;;;7.23;5.03;;;;;;;21.53;80.14;100377.78;4907244;29;20496;-83
2023/07/30 06:19:49;;;;;;;5.37;4.93;;;;;;;21.39;81.10;100372.09;4903144;29;20435;-82
2023/07/30 06:22:21;;;;;;;5.23;3.73;;;;;;;21.55;80.46;100376.38;4904312;29;20458;-83
2023/07/30 06:24:54;;;;;;;6.43;4.90;;;;;;;21.68;80.79;100381.25;4909945;29;20452;-81
2023/07/30 06:27:24;;;;;;;4.40;4.00;;;;;;;21.78;78.86;100390.53;4911403;29;20862;-79
2023/07/30 06:29:56;;;;;;;4.53;4.13;;;;;;;21.95;78.65;100380.75;4908016;29;20919;-80
2023/07/30 06:32:27;;;;;;;4.50;4.00;;;;;;;22.21;76.53;100388.78;4892203;29;20462;-81
2023/07/30 06:34:56;;;;;;;4.40;4.00;;;;;;;22.32;75.27;100385.59;4904327;29;20463;-83
2023/07/30 06:37:27;;;;;;;6.50;3.27;;;;;;;22.50;76.42;100375.78;4907403;29;20429;-83
2023/07/30 06:39:57;;;;;;;4.13;3.73;;;;;;;22.51;75.28;100382.94;4905449;29;20405;-81
2023/07/30 06:42:26;;;;;;;4.17;3.77;;;;;;;22.36;75.75;100385.84;4912773;29;20973;-83
2023/07/30 06:44:56;;;;;;;6.90;4.90;;;;;;;22.56;74.29;100387.56;4902245;29;20474;-81
2023/07/30 06:47:25;;;;;;;4.67;4.17;;;;;;;22.75;74.31;100380.97;4903543;29;20417;-83
2023/07/30 06:49:54;;;;;;;4.77;4.20;;;;;;;22.94;73.47;100387.38;4905230;29;20794;-81
2023/07/30 06:52:23;;;;;;;5.60;4.60;;;;;;;22.83;72.20;100385.88;4916027;29;20497;-83
2023/07/30 06:54:54;;;;;;;4.03;3.73;;;;;;;22.49;73.93;100387.91;4915655;29;20449;-81
2023/07/30 06:57:23;;;;;;;4.70;3.90;;;;;;;22.33;74.78;100386.44;4909163;29;20412;-81
2023/07/30 06:59:53;;;;;;;4.53;3.77;;;;;;;22.46;74.29;100388.50;4901283;29;20939;-82
2023/07/30 07:02:23;;;;;;;4.50;4.10;;;;;;;23.07;73.77;100385.81;4906227;29;20458;-87
2023/07/30 07:04:59;;;;;;;4.07;3.77;;;;;;;23.26;70.96;100383.06;4925775;29;20541;-86
2023/07/30 07:07:28;;;;;;;5.60;3.60;;;;;;;23.17;70.91;100379.34;4925249;29;20510;-84
2023/07/30 07:09:59;;;;;;;3.90;3.60;;;;;;;22.90;71.27;100386.31;4911784;29;20442;-84
2023/07/30 07:12:28;;;;;;;3.20;2.90;;;;;;;22.93;72.93;100385.75;4921719;29;20474;-84
2023/07/30 07:15:01;;;;;;;4.90;3.90;;;;;;;22.67;74.06;100395.41;4906576;29;20463;-84
2023/07/30 07:17:30;;;;;;;5.30;4.30;;;;;;;22.93;73.69;100387.66;4907285;29;20434;-84
2023/07/30 07:20:00;;;;;;;4.83;3.60;;;;;;;22.84;73.32;100393.03;4905593;29;20872;-83
2023/07/30 07:22:29;;;;;;;4.40;3.60;;;;;;;23.05;72.41;100387.22;4917279;29;20469;-82
2023/07/30 07:25:00;;;;;;;4.70;4.33;;;;;;;23.05;72.30;100384.47;4920195;29;20458;-83
2023/07/30 07:27:30;;;;;;;5.27;4.03;;;;;;;23.00;73.73;100379.00;4919482;29;20438;-83
2023/07/30 07:30:00;;;;;;;5.17;4.30;;;;;;;23.02;72.61;100383.13;4919372;29;20455;-82
2023/07/30 07:32:37;;;;;;;4.47;4.07;;;;;;;23.32;72.19;100371.66;4911306;29;20991;-83
2023/07/30 07:38:46;;;;;;;;;;;;;;;;;;;;;
2023/07/30 07:47:04;;;;;;;5.43;3.87;;;;;;;23.15;73.00;100381.56;4921067;29;20554;-82
2023/07/30 08:16:42;;;;;;;5.47;5.00;;;;;;;22.59;74.60;100381.44;4776688;29;20456;-85
2023/07/30 08:26:59;;;;;;;6.73;6.20;;;;;;;22.29;76.50;100385.38;5260118;23;20489;-85
2023/07/30 08:30:05;;;;;;;4.40;4.00;;;;;;;22.46;75.04;100391.25;4910675;29;20485;-84
2023/07/30 08:47:26;;;;;;;4.77;4.10;;;;;;;22.69;71.41;100397.88;4852513;29;20440;-84
2023/07/30 10:21:03;;;;;;;4.80;2.83;;;;;;;25.32;50.28;100407.22;4870805;29;20445;-83
2023/07/30 10:28:06;;;;;;;4.20;3.73;;;;;;;26.82;48.54;100425.81;4872167;29;20513;-83
2023/07/30 10:31:36;;;;;;;3.70;3.27;;;;;;;26.60;46.84;100421.19;4892995;29;20480;-85
2023/07/30 10:39:35;;;;;;;5.30;3.03;;;;;;;26.60;46.49;100409.25;4741262;29;20539;-84
2023/07/30 10:51:20;;;;;;;11.13;6.93;;;;;;;26.08;48.85;100413.69;4874972;29;20495;-83
2023/07/30 11:04:58;;;;;;;;;;;;;;;;;;;;;
2023/07/30 11:13:03;;;;;;;5.30;3.00;;;;;;;26.48;45.98;100420.16;4810427;29;20586;-84
2023/07/30 11:16:44;;;;;;;;;;;;;;;;;;;;;
2023/07/30 11:24:49;;;;;;;4.77;3.37;;;;;;;27.19;46.32;100416.97;4838972;29;20525;-86
2023/07/30 12:17:42;;;;;;;9.13;2.83;;;;;;;26.65;40.30;100401.59;5221280;23;20536;-85
2023/07/30 12:20:17;;;;;;;4.70;3.33;;;;;;;26.91;40.82;100398.94;4941643;29;20866;-87
2023/07/30 12:22:48;;;;;;;4.70;3.30;;;;;;;26.97;42.84;100403.19;4920116;29;20490;-86
2023/07/30 12:25:18;;;;;;;5.57;2.80;;;;;;;26.76;39.95;100396.59;4931716;29;20504;-87
2023/07/30 12:27:48;;;;;;;5.17;3.00;;;;;;;26.96;40.54;100400.75;4924974;29;20474;-85
2023/07/30 12:30:19;;;;;;;13.13;6.93;;;;;;;26.95;40.71;100397.16;4919723;29;20442;-86
2023/07/30 12:32:50;;;;;;;5.03;2.93;;;;;;;27.31;41.11;100394.09;4926893;29;20535;-85
2023/07/30 12:35:20;;;;;;;5.47;4.07;;;;;;;27.73;40.55;100400.84;4931655;29;20498;-84
2023/07/30 12:37:50;;;;;;;4.70;3.80;;;;;;;27.63;39.42;100398.41;4915737;29;20434;-86
2023/07/30 12:40:19;;;;;;;5.87;3.53;;;;;;;27.78;39.89;100394.28;4915985;29;20445;-86
2023/07/30 12:42:49;;;;;;;4.23;3.07;;;;;;;27.69;39.75;100397.09;4903358;29;20487;-86
2023/07/30 12:45:20;;;;;;;6.47;4.53;;;;;;;27.62;39.93;100402.31;4900874;29;20460;-85
2023/07/30 12:47:54;;;;;;;4.73;3.63;;;;;;;27.58;40.18;100395.78;4912655;29;20504;-87
2023/07/30 12:50:24;;;;;;;13.93;12.67;;;;;;;27.47;40.53;100388.88;4917603;29;20461;-86
2023/07/30 12:52:54;;;;;;;4.80;4.07;;;;;;;27.63;39.73;100382.53;4906720;29;20474;-85
2023/07/30 12:55:24;;;;;;;9.37;3.83;;;;;;;27.35;40.68;100385.94;4906618;29;20446;-87
2023/07/30 13:00:57;;;;;;;5.83;5.20;;;;;;;27.60;40.35;100388.72;4909432;29;21036;-86
2023/07/30 13:03:35;;;;;;;5.40;3.83;;;;;;;27.59;40.46;100384.31;4911227;29;20579;-86
2023/07/30 13:06:06;;;;;;;6.83;4.20;;;;;;;27.37;40.54;100383.63;4909410;29;20421;-86
2023/07/30 13:08:37;;;;;;;4.50;3.57;;;;;;;27.25;40.51;100387.09;4909408;29;20442;-87
2023/07/30 13:11:07;;;;;;;5.17;3.60;;;;;;;26.73;41.29;100386.09;4912325;29;20465;-86
2023/07/30 13:13:37;;;;;;;4.70;3.30;;;;;;;27.07;41.52;100379.84;4914003;29;20433;-85
2023/07/30 13:16:06;;;;;;;4.93;3.67;;;;;;;26.85;39.73;100379.94;4915585;29;20443;-87
2023/07/30 13:18:37;;;;;;;5.67;3.30;;;;;;;26.37;40.62;100378.00;4921145;29;20457;-85
2023/07/30 13:21:07;;;;;;;5.63;3.30;;;;;;;26.45;40.06;100377.19;4921271;29;20473;-87
2023/07/30 13:23:41;;;;;;;4.90;3.50;;;;;;;26.28;40.60;100372.41;4910728;29;20541;-86
2023/07/30 13:26:11;;;;;;;3.83;3.40;;;;;;;26.78;40.70;100369.31;4911531;29;20458;-84
2023/07/30 13:28:41;;;;;;;4.60;3.70;;;;;;;26.83;40.29;100360.81;4906286;29;20468;-85
2023/07/30 13:31:12;;;;;;;4.73;3.17;;;;;;;27.24;40.10;100355.69;4905748;29;20482;-86
2023/07/30 13:33:48;;;;;;;4.40;3.50;;;;;;;27.02;40.01;100350.28;4903848;29;20462;-85
2023/07/30 13:36:25;;;;;;;6.53;4.37;;;;;;;26.79;39.59;100348.75;4930475;29;20439;-85
2023/07/30 13:38:55;;;;;;;5.87;3.80;;;;;;;26.62;40.86;100355.09;4906416;29;20529;-86
2023/07/30 13:41:27;;;;;;;5.30;3.30;;;;;;;26.05;39.59;100354.13;4901389;29;20471;-86
2023/07/30 13:44:02;;;;;;;4.33;3.53;;;;;;;25.84;40.45;100353.06;4905936;29;20505;-86
2023/07/30 13:46:34;;;;;;;4.60;3.37;;;;;;;26.10;40.65;100345.69;4909857;29;20523;-85
2023/07/30 13:49:07;;;;;;;3.60;3.30;;;;;;;26.17;40.62;100350.78;4921099;29;20459;-86
2023/07/30 13:51:37;;;;;;;3.13;2.83;;;;;;;26.18;39.90;100347.69;4918874;29;20483;-86
2023/07/30 13:54:11;;;;;;;4.40;3.53;;;;;;;26.38;39.54;100363.78;4907164;29;20431;-86
2023/07/30 13:56:41;;;;;;;7.17;3.90;;;;;;;26.24;39.70;100362.25;4905896;29;20802;-87
2023/07/30 13:59:12;;;;;;;3.80;2.70;;;;;;;26.28;40.03;100369.63;4907800;29;20469;-86
2023/07/30 14:01:42;;;;;;;5.40;2.70;;;;;;;26.32;39.99;100362.31;4921557;29;20485;-87
2023/07/30 14:04:15;;;;;;;5.90;3.00;;;;;;;26.33;40.45;100357.59;4924842;29;20491;-87
2023/07/30 14:06:45;;;;;;;5.27;4.07;;;;;;;26.41;39.83;100358.75;4915736;29;20478;-86
2023/07/30 14:09:16;;;;;;;9.97;3.37;;;;;;;26.29;39.97;100342.69;4935566;29;20445;-85
2023/07/30 14:11:46;;;;;;;2.73;2.50;;;;;;;26.03;40.66;100350.88;4922507;29;20495;-86
2023/07/30 14:14:16;;;;;;;4.70;2.73;;;;;;;25.89;41.86;100350.16;4922945;29;20450;-87
2023/07/30 14:16:46;;;;;;;3.17;2.60;;;;;;;25.95;41.13;100360.78;4922866;29;20446;-87
2023/07/30 14:19:20;;;;;;;4.70;2.40;;;;;;;25.55;41.34;100342.44;4923505;29;20463;-85
2023/07/30 14:21:50;;;;;;;4.73;1.80;;;;;;;25.20;42.25;100348.78;4923044;29;20493;-85
2023/07/30 14:24:20;;;;;;;5.60;3.00;;;;;;;24.86;43.14;100366.66;4927954;29;20481;-84
2023/07/30 14:26:53;;;;;;;4.43;2.00;;;;;;;24.67;43.33;100379.81;4922640;29;20833;-86
2023/07/30 14:29:27;;;;;;;4.53;2.40;;;;;;;24.54;43.66;100391.69;4906394;29;20434;-86
2023/07/30 14:31:59;;;;;;;5.50;2.27;;;;;;;24.40;44.33;100391.66;4905898;29;20515;-85
2023/07/30 14:34:33;;;;;;;4.53;2.43;;;;;;;24.65;44.06;100387.59;4897167;29;20921;-85
2023/07/30 14:37:03;;;;;;;4.77;2.77;;;;;;;24.44;45.31;100392.72;4913047;29;20430;-87
2023/07/30 14:39:51;;;;;;;6.70;4.20;;;;;;;24.06;46.54;100410.53;4902439;29;20958;-85
2023/07/30 14:42:26;;;;;;;5.50;2.53;;;;;;;23.70;46.92;100421.34;4900590;29;20752;-86
2023/07/30 14:45:07;;;;;;;10.40;3.50;;;;;;;23.42;46.95;100412.09;4904758;29;20873;-86
2023/07/30 14:51:05;;;;;;;5.33;4.03;;;;;;;22.93;48.07;100413.31;4907287;29;20549;-86
2023/07/30 14:53:35;;;;;;;4.27;3.40;;;;;;;;;;4918844;29;20464;-85
2023/07/30 14:56:06;;;;;;;4.50;2.13;;;;;;;22.78;48.59;100416.28;4939311;29;20489;-87
2023/07/30 14:58:38;;;;;;;4.73;2.30;;;;;;;22.57;49.53;100409.31;4940246;29;20438;-85
2023/07/30 15:01:08;;;;;;;4.70;2.57;;;;;;;22.39;50.70;100419.16;4939671;29;20473;-85
2023/07/30 15:03:42;;;;;;;3.73;2.30;;;;;;;22.16;52.60;100419.13;4935431;29;20437;-86
2023/07/30 15:06:13;;;;;;;3.60;2.30;;;;;;;21.93;55.16;100427.03;4927885;29;20442;-86
2023/07/30 15:08:42;;;;;;;6.93;2.80;;;;;;;21.57;58.17;100429.22;4907825;29;20452;-85
2023/07/30 15:11:13;;;;;;;4.30;2.57;;;;;;;21.20;61.02;100421.47;4904422;29;20469;-85
2023/07/30 15:13:45;;;;;;;7.37;3.40;;;;;;;21.27;62.97;100414.81;4907772;29;20450;-86
2023/07/30 15:16:15;;;;;;;4.07;2.77;;;;;;;21.21;62.45;100409.34;4915228;29;20430;-81
2023/07/30 15:18:44;;;;;;;3.57;2.40;;;;;;;21.25;62.06;100396.66;4901450;29;20409;-81
2023/07/30 15:21:15;;;;;;;3.60;2.77;;;;;;;21.69;61.70;100387.53;4915311;29;20469;-81
2023/07/30 15:23:45;;;;;;;3.47;2.40;;;;;;;21.91;59.76;100385.16;4903680;29;20424;-80
2023/07/30 15:26:15;;;;;;;6.60;2.67;;;;;;;22.23;58.76;100390.09;4909196;29;20444;-79
2023/07/30 15:28:44;;;;;;;4.47;2.70;;;;;;;22.62;58.73;100383.63;4899750;29;20514;-80
2023/07/30 15:31:14;;;;;;;8.00;3.60;;;;;;;22.60;59.01;100375.66;4905997;29;20471;-79
2023/07/30 15:33:44;;;;;;;38.00;29.77;;;;;;;22.55;60.28;100378.47;4919352;29;20985;-80
2023/07/30 15:36:14;;;;;;;3.83;3.10;;;;;;;22.25;61.19;100373.28;4909006;29;20448;-80
2023/07/30 15:38:44;;;;;;;7.47;4.87;;;;;;;22.09;62.50;100372.63;4911056;29;20925;-79
2023/07/30 15:41:13;;;;;;;11.47;4.33;;;;;;;22.13;64.13;100373.69;4927017;23;20495;-80
2023/07/30 15:43:42;;;;;;;7.50;3.10;;;;;;;22.28;64.07;100372.69;4907281;29;20459;-83
2023/07/30 15:46:12;;;;;;;6.20;3.07;;;;;;;22.19;63.76;100374.44;4910258;29;20424;-80
2023/07/30 15:48:42;;;;;;;4.20;3.30;;;;;;;22.15;62.33;100362.38;4915474;29;20471;-83
2023/07/30 15:51:12;;;;;;;3.70;2.73;;;;;;;22.46;61.98;100369.22;4916357;29;20434;-80
2023/07/30 15:53:43;;;;;;;5.33;2.10;;;;;;;22.71;60.89;100371.66;4934432;29;20422;-81
2023/07/30 15:56:12;;;;;;;5.13;2.40;;;;;;;22.53;61.69;100375.16;4934098;29;20430;-80
2023/07/30 15:58:42;;;;;;;3.33;2.60;;;;;;;22.31;62.27;100369.38;4917935;29;20395;-82
2023/07/30 16:01:13;;;;;;;4.50;2.90;;;;;;;22.19;61.65;100371.69;4900138;29;20449;-81
2023/07/30 16:03:43;;;;;;;3.70;2.73;;;;;;;21.88;61.82;100363.69;4897499;29;20423;-81
2023/07/30 16:06:13;;;;;;;3.63;2.33;;;;;;;21.91;61.96;100373.31;4897446;29;20452;-82
2023/07/30 16:08:44;;;;;;;4.03;1.97;;;;;;;21.58;63.04;100377.75;4899423;29;20478;-82
2023/07/30 16:11:14;;;;;;;6.30;4.77;;;;;;;21.28;64.13;100372.44;4897127;29;20413;-80
2023/07/30 16:13:44;;;;;;;4.37;2.60;;;;;;;21.27;64.54;100368.03;4897881;29;20405;-82
2023/07/30 16:16:15;;;;;;;2.83;2.40;;;;;;;21.39;64.87;100374.03;4899508;29;20479;-82
2023/07/30 16:18:46;;;;;;;4.63;2.13;;;;;;;21.39;65.30;100374.88;4902457;29;20408;-80
2023/07/30 16:21:15;;;;;;;6.80;2.47;;;;;;;21.51;64.96;100374.47;4921487;29;20417;-82